sensor_id;sensor_type;location;lat;lon;timestamp;P1;durP1;ratioP1;P2;durP2;ratioP2
18695;SDS011;22617;43.690;27.956;2022-08-11T00:04:38;3.28;;;2.28;;
18695;SDS011;22617;43.690;27.956;2022-08-11T00:09:45;3.05;;;2.10;;
18695;SDS011;22617;43.690;27.956;2022-08-11T00:14:54;5.77;;;2.53;;
18695;SDS011;22617;43.690;27.956;2022-08-11T00:20:03;5.10;;;2.53;;
18695;SDS011;22617;43.690;27.956;2022-08-11T00:25:18;2.92;;;2.50;;
18695;SDS011;22617;43.690;27.956;2022-08-11T00:30:23;4.35;;;2.80;;
18695;SDS011;22617;43.690;27.956;2022-08-11T00:35:28;4.60;;;3.05;;
18695;SDS011;22617;43.690;27.956;2022-08-11T00:40:56;4.47;;;3.00;;
18695;SDS011;22617;43.690;27.956;2022-08-11T00:46:09;4.20;;;2.45;;
18695;SDS011;22617;43.690;27.956;2022-08-11T00:51:21;6.80;;;3.05;;
18695;SDS011;22617;43.690;27.956;2022-08-11T01:14:21;3.03;;;2.42;;
18695;SDS011;22617;43.690;27.956;2022-08-11T01:19:50;3.33;;;2.40;;
18695;SDS011;22617;43.690;27.956;2022-08-11T01:31:33;5.13;;;2.47;;
18695;SDS011;22617;43.690;27.956;2022-08-11T01:36:59;3.83;;;2.35;;
18695;SDS011;22617;43.690;27.956;2022-08-11T01:42:21;4.00;;;2.45;;
18695;SDS011;22617;43.690;27.956;2022-08-11T01:48:12;3.55;;;2.78;;
18695;SDS011;22617;43.690;27.956;2022-08-11T01:53:27;2.95;;;2.30;;
18695;SDS011;22617;43.690;27.956;2022-08-11T01:58:41;4.03;;;2.70;;
18695;SDS011;22617;43.690;27.956;2022-08-11T02:03:53;4.47;;;2.93;;
18695;SDS011;22617;43.690;27.956;2022-08-11T02:09:06;4.15;;;2.80;;
18695;SDS011;22617;43.690;27.956;2022-08-11T02:14:23;3.33;;;2.50;;
18695;SDS011;22617;43.690;27.956;2022-08-11T02:19:35;4.53;;;2.83;;
18695;SDS011;22617;43.690;27.956;2022-08-11T02:25:05;5.32;;;4.18;;
18695;SDS011;22617;43.690;27.956;2022-08-11T02:30:20;3.47;;;3.10;;
18695;SDS011;22617;43.690;27.956;2022-08-11T02:35:28;3.97;;;3.58;;
18695;SDS011;22617;43.690;27.956;2022-08-11T02:40:48;4.78;;;4.28;;
18695;SDS011;22617;43.690;27.956;2022-08-11T02:46:30;7.07;;;4.93;;
18695;SDS011;22617;43.690;27.956;2022-08-11T02:51:52;6.83;;;5.87;;
18695;SDS011;22617;43.690;27.956;2022-08-11T02:57:05;7.63;;;6.35;;
18695;SDS011;22617;43.690;27.956;2022-08-11T03:02:19;8.25;;;6.40;;
18695;SDS011;22617;43.690;27.956;2022-08-11T03:07:40;7.87;;;6.50;;
18695;SDS011;22617;43.690;27.956;2022-08-11T03:12:57;8.67;;;5.87;;
18695;SDS011;22617;43.690;27.956;2022-08-11T03:18:25;10.98;;;6.63;;
18695;SDS011;22617;43.690;27.956;2022-08-11T03:23:36;7.83;;;5.80;;
18695;SDS011;22617;43.690;27.956;2022-08-11T03:28:49;7.30;;;6.03;;
18695;SDS011;22617;43.690;27.956;2022-08-11T03:34:03;7.05;;;5.80;;
18695;SDS011;22617;43.690;27.956;2022-08-11T03:39:15;7.30;;;5.40;;
18695;SDS011;22617;43.690;27.956;2022-08-11T03:44:27;7.97;;;6.32;;
18695;SDS011;22617;43.690;27.956;2022-08-11T03:49:43;8.87;;;6.70;;
18695;SDS011;22617;43.690;27.956;2022-08-11T03:55:07;8.23;;;6.85;;
18695;SDS011;22617;43.690;27.956;2022-08-11T04:00:21;15.57;;;7.75;;
18695;SDS011;22617;43.690;27.956;2022-08-11T04:22:50;6.77;;;5.70;;
18695;SDS011;22617;43.690;27.956;2022-08-11T04:34:03;9.75;;;5.20;;
18695;SDS011;22617;43.690;27.956;2022-08-11T04:39:19;5.60;;;4.78;;
18695;SDS011;22617;43.690;27.956;2022-08-11T04:50:25;7.57;;;5.47;;
18695;SDS011;22617;43.690;27.956;2022-08-11T04:56:19;6.75;;;5.00;;
18695;SDS011;22617;43.690;27.956;2022-08-11T05:01:50;7.72;;;5.18;;
18695;SDS011;22617;43.690;27.956;2022-08-11T05:13:11;8.02;;;5.63;;
18695;SDS011;22617;43.690;27.956;2022-08-11T05:18:44;5.30;;;4.80;;
18695;SDS011;22617;43.690;27.956;2022-08-11T05:24:10;5.30;;;4.68;;
18695;SDS011;22617;43.690;27.956;2022-08-11T05:29:42;7.85;;;4.25;;
18695;SDS011;22617;43.690;27.956;2022-08-11T05:35:07;5.97;;;4.50;;
18695;SDS011;22617;43.690;27.956;2022-08-11T05:40:32;4.60;;;3.58;;
18695;SDS011;22617;43.690;27.956;2022-08-11T05:46:03;5.97;;;3.95;;
18695;SDS011;22617;43.690;27.956;2022-08-11T05:51:32;5.70;;;3.83;;
18695;SDS011;22617;43.690;27.956;2022-08-11T05:56:56;5.35;;;3.80;;
18695;SDS011;22617;43.690;27.956;2022-08-11T06:02:04;5.85;;;4.10;;
18695;SDS011;22617;43.690;27.956;2022-08-11T06:07:11;4.47;;;3.78;;
18695;SDS011;22617;43.690;27.956;2022-08-11T06:12:19;5.30;;;3.88;;
18695;SDS011;22617;43.690;27.956;2022-08-11T06:17:28;7.72;;;3.65;;
18695;SDS011;22617;43.690;27.956;2022-08-11T06:22:40;6.30;;;3.92;;
18695;SDS011;22617;43.690;27.956;2022-08-11T06:27:53;5.72;;;4.15;;
18695;SDS011;22617;43.690;27.956;2022-08-11T06:33:00;4.18;;;3.53;;
18695;SDS011;22617;43.690;27.956;2022-08-11T06:38:08;3.90;;;3.30;;
18695;SDS011;22617;43.690;27.956;2022-08-11T06:43:17;9.10;;;3.65;;
18695;SDS011;22617;43.690;27.956;2022-08-11T06:48:25;6.40;;;3.47;;
18695;SDS011;22617;43.690;27.956;2022-08-11T06:53:31;5.03;;;3.40;;
18695;SDS011;22617;43.690;27.956;2022-08-11T06:58:38;5.22;;;3.38;;
18695;SDS011;22617;43.690;27.956;2022-08-11T07:04:05;10.32;;;3.45;;
18695;SDS011;22617;43.690;27.956;2022-08-11T07:09:17;6.28;;;2.78;;
18695;SDS011;22617;43.690;27.956;2022-08-11T07:15:01;4.32;;;2.92;;
18695;SDS011;22617;43.690;27.956;2022-08-11T07:20:47;4.38;;;2.80;;
18695;SDS011;22617;43.690;27.956;2022-08-11T07:26:30;3.67;;;2.90;;
18695;SDS011;22617;43.690;27.956;2022-08-11T07:31:53;3.75;;;2.63;;
18695;SDS011;22617;43.690;27.956;2022-08-11T07:37:07;3.17;;;2.35;;
18695;SDS011;22617;43.690;27.956;2022-08-11T07:42:14;3.58;;;2.90;;
18695;SDS011;22617;43.690;27.956;2022-08-11T07:47:22;3.58;;;2.58;;
18695;SDS011;22617;43.690;27.956;2022-08-11T07:52:46;3.15;;;2.40;;
18695;SDS011;22617;43.690;27.956;2022-08-11T07:57:55;5.50;;;2.55;;
18695;SDS011;22617;43.690;27.956;2022-08-11T08:03:21;5.93;;;2.40;;
18695;SDS011;22617;43.690;27.956;2022-08-11T08:08:57;5.07;;;2.22;;
18695;SDS011;22617;43.690;27.956;2022-08-11T08:14:19;2.47;;;1.95;;
18695;SDS011;22617;43.690;27.956;2022-08-11T08:19:42;3.10;;;2.03;;
18695;SDS011;22617;43.690;27.956;2022-08-11T08:24:51;2.22;;;1.88;;
18695;SDS011;22617;43.690;27.956;2022-08-11T08:29:57;2.00;;;1.80;;
18695;SDS011;22617;43.690;27.956;2022-08-11T08:35:19;3.10;;;1.90;;
18695;SDS011;22617;43.690;27.956;2022-08-11T08:40:26;4.03;;;1.92;;
18695;SDS011;22617;43.690;27.956;2022-08-11T08:45:31;4.40;;;1.98;;
18695;SDS011;22617;43.690;27.956;2022-08-11T08:50:45;2.40;;;1.50;;
18695;SDS011;22617;43.690;27.956;2022-08-11T08:56:13;3.83;;;1.65;;
18695;SDS011;22617;43.690;27.956;2022-08-11T09:01:24;2.42;;;1.90;;
18695;SDS011;22617;43.690;27.956;2022-08-11T09:06:32;3.15;;;2.05;;
18695;SDS011;22617;43.690;27.956;2022-08-11T09:11:38;3.85;;;2.20;;
18695;SDS011;22617;43.690;27.956;2022-08-11T09:16:54;3.22;;;1.70;;
18695;SDS011;22617;43.690;27.956;2022-08-11T09:21:59;4.70;;;2.00;;
18695;SDS011;22617;43.690;27.956;2022-08-11T09:27:18;5.07;;;1.80;;
18695;SDS011;22617;43.690;27.956;2022-08-11T09:32:22;3.00;;;1.73;;
18695;SDS011;22617;43.690;27.956;2022-08-11T09:37:30;11.13;;;2.33;;
18695;SDS011;22617;43.690;27.956;2022-08-11T09:42:58;3.65;;;1.90;;
18695;SDS011;22617;43.690;27.956;2022-08-11T09:48:23;2.75;;;2.00;;
18695;SDS011;22617;43.690;27.956;2022-08-11T09:53:31;4.10;;;1.85;;
18695;SDS011;22617;43.690;27.956;2022-08-11T09:58:44;2.15;;;1.80;;
18695;SDS011;22617;43.690;27.956;2022-08-11T10:03:48;4.40;;;2.05;;
18695;SDS011;22617;43.690;27.956;2022-08-11T10:08:56;3.20;;;1.75;;
18695;SDS011;22617;43.690;27.956;2022-08-11T10:14:02;3.95;;;2.03;;
18695;SDS011;22617;43.690;27.956;2022-08-11T10:19:35;2.08;;;1.88;;
18695;SDS011;22617;43.690;27.956;2022-08-11T10:24:41;7.55;;;1.70;;
18695;SDS011;22617;43.690;27.956;2022-08-11T10:30:07;4.43;;;1.85;;
18695;SDS011;22617;43.690;27.956;2022-08-11T10:35:29;4.63;;;2.05;;
18695;SDS011;22617;43.690;27.956;2022-08-11T10:40:36;4.38;;;2.03;;
18695;SDS011;22617;43.690;27.956;2022-08-11T10:45:45;4.20;;;2.00;;
18695;SDS011;22617;43.690;27.956;2022-08-11T10:51:07;3.35;;;1.90;;
18695;SDS011;22617;43.690;27.956;2022-08-11T10:56:39;7.60;;;2.35;;
18695;SDS011;22617;43.690;27.956;2022-08-11T11:02:01;2.80;;;1.90;;
18695;SDS011;22617;43.690;27.956;2022-08-11T11:07:07;3.97;;;2.38;;
18695;SDS011;22617;43.690;27.956;2022-08-11T11:12:19;3.67;;;1.80;;
18695;SDS011;22617;43.690;27.956;2022-08-11T11:17:46;3.28;;;2.10;;
18695;SDS011;22617;43.690;27.956;2022-08-11T11:23:07;5.03;;;1.85;;
18695;SDS011;22617;43.690;27.956;2022-08-11T11:28:23;3.13;;;2.15;;
18695;SDS011;22617;43.690;27.956;2022-08-11T11:33:46;3.63;;;1.88;;
18695;SDS011;22617;43.690;27.956;2022-08-11T11:39:15;3.70;;;1.90;;
18695;SDS011;22617;43.690;27.956;2022-08-11T11:44:21;5.00;;;2.00;;
18695;SDS011;22617;43.690;27.956;2022-08-11T11:49:29;2.42;;;2.22;;
18695;SDS011;22617;43.690;27.956;2022-08-11T11:54:34;2.63;;;2.10;;
18695;SDS011;22617;43.690;27.956;2022-08-11T11:59:39;3.10;;;1.80;;
18695;SDS011;22617;43.690;27.956;2022-08-11T12:05:02;4.82;;;2.25;;
18695;SDS011;22617;43.690;27.956;2022-08-11T12:10:07;4.90;;;1.90;;
18695;SDS011;22617;43.690;27.956;2022-08-11T12:15:12;2.42;;;1.83;;
18695;SDS011;22617;43.690;27.956;2022-08-11T12:20:41;2.85;;;1.88;;
18695;SDS011;22617;43.690;27.956;2022-08-11T12:25:47;2.10;;;1.90;;
18695;SDS011;22617;43.690;27.956;2022-08-11T12:31:28;2.00;;;1.80;;
18695;SDS011;22617;43.690;27.956;2022-08-11T12:36:36;3.17;;;2.30;;
18695;SDS011;22617;43.690;27.956;2022-08-11T12:41:43;4.88;;;2.13;;
18695;SDS011;22617;43.690;27.956;2022-08-11T12:47:05;2.33;;;2.13;;
18695;SDS011;22617;43.690;27.956;2022-08-11T12:52:16;2.35;;;1.90;;
18695;SDS011;22617;43.690;27.956;2022-08-11T12:57:26;2.92;;;2.20;;
18695;SDS011;22617;43.690;27.956;2022-08-11T13:02:51;4.57;;;2.25;;
18695;SDS011;22617;43.690;27.956;2022-08-11T13:08:15;2.63;;;2.25;;
18695;SDS011;22617;43.690;27.956;2022-08-11T13:13:20;3.67;;;2.05;;
18695;SDS011;22617;43.690;27.956;2022-08-11T13:18:45;3.45;;;2.00;;
18695;SDS011;22617;43.690;27.956;2022-08-11T13:23:52;6.13;;;2.75;;
18695;SDS011;22617;43.690;27.956;2022-08-11T13:29:03;2.80;;;2.28;;
18695;SDS011;22617;43.690;27.956;2022-08-11T13:34:08;4.07;;;2.25;;
18695;SDS011;22617;43.690;27.956;2022-08-11T13:39:14;5.45;;;2.35;;
18695;SDS011;22617;43.690;27.956;2022-08-11T13:44:18;5.13;;;2.67;;
18695;SDS011;22617;43.690;27.956;2022-08-11T13:49:26;3.42;;;2.30;;
18695;SDS011;22617;43.690;27.956;2022-08-11T13:54:34;5.85;;;2.10;;
18695;SDS011;22617;43.690;27.956;2022-08-11T13:59:40;6.05;;;2.45;;
18695;SDS011;22617;43.690;27.956;2022-08-11T14:04:55;4.30;;;2.13;;
18695;SDS011;22617;43.690;27.956;2022-08-11T14:10:04;3.20;;;2.13;;
18695;SDS011;22617;43.690;27.956;2022-08-11T14:15:13;3.22;;;2.08;;
18695;SDS011;22617;43.690;27.956;2022-08-11T14:20:21;4.10;;;2.40;;
18695;SDS011;22617;43.690;27.956;2022-08-11T14:25:47;3.92;;;2.65;;
18695;SDS011;22617;43.690;27.956;2022-08-11T14:31:09;2.17;;;1.95;;
18695;SDS011;22617;43.690;27.956;2022-08-11T14:36:14;4.88;;;2.20;;
18695;SDS011;22617;43.690;27.956;2022-08-11T14:41:21;4.80;;;2.38;;
18695;SDS011;22617;43.690;27.956;2022-08-11T14:47:04;6.80;;;2.40;;
18695;SDS011;22617;43.690;27.956;2022-08-11T14:52:25;3.47;;;2.17;;
18695;SDS011;22617;43.690;27.956;2022-08-11T14:57:34;2.97;;;2.28;;
18695;SDS011;22617;43.690;27.956;2022-08-11T15:02:57;3.92;;;2.33;;
18695;SDS011;22617;43.690;27.956;2022-08-11T15:08:15;3.10;;;2.33;;
18695;SDS011;22617;43.690;27.956;2022-08-11T15:13:22;4.00;;;2.25;;
18695;SDS011;22617;43.690;27.956;2022-08-11T15:18:27;2.97;;;2.15;;
18695;SDS011;22617;43.690;27.956;2022-08-11T15:23:34;4.20;;;2.00;;
18695;SDS011;22617;43.690;27.956;2022-08-11T15:28:57;5.30;;;2.20;;
18695;SDS011;22617;43.690;27.956;2022-08-11T15:34:24;5.72;;;2.03;;
18695;SDS011;22617;43.690;27.956;2022-08-11T15:39:50;3.33;;;2.28;;
18695;SDS011;22617;43.690;27.956;2022-08-11T15:45:34;3.10;;;2.05;;
18695;SDS011;22617;43.690;27.956;2022-08-11T15:50:52;5.70;;;2.33;;
18695;SDS011;22617;43.690;27.956;2022-08-11T15:56:02;3.53;;;2.22;;
18695;SDS011;22617;43.690;27.956;2022-08-11T16:01:09;2.92;;;2.10;;
18695;SDS011;22617;43.690;27.956;2022-08-11T16:06:35;3.80;;;2.60;;
18695;SDS011;22617;43.690;27.956;2022-08-11T16:11:50;2.50;;;2.15;;
18695;SDS011;22617;43.690;27.956;2022-08-11T16:16:58;4.88;;;2.70;;
18695;SDS011;22617;43.690;27.956;2022-08-11T16:22:05;2.30;;;2.10;;
18695;SDS011;22617;43.690;27.956;2022-08-11T16:27:12;3.83;;;2.33;;
18695;SDS011;22617;43.690;27.956;2022-08-11T16:32:26;2.13;;;1.92;;
18695;SDS011;22617;43.690;27.956;2022-08-11T16:37:32;3.22;;;1.98;;
18695;SDS011;22617;43.690;27.956;2022-08-11T16:42:55;6.90;;;2.08;;
18695;SDS011;22617;43.690;27.956;2022-08-11T16:48:20;4.72;;;1.92;;
18695;SDS011;22617;43.690;27.956;2022-08-11T16:53:37;3.08;;;2.10;;
18695;SDS011;22617;43.690;27.956;2022-08-11T16:59:05;4.05;;;2.10;;
18695;SDS011;22617;43.690;27.956;2022-08-11T17:04:29;2.40;;;2.05;;
18695;SDS011;22617;43.690;27.956;2022-08-11T17:09:56;2.55;;;1.92;;
18695;SDS011;22617;43.690;27.956;2022-08-11T17:15:47;2.70;;;1.90;;
18695;SDS011;22617;43.690;27.956;2022-08-11T17:21:13;4.30;;;2.13;;
18695;SDS011;22617;43.690;27.956;2022-08-11T17:26:22;3.28;;;2.05;;
18695;SDS011;22617;43.690;27.956;2022-08-11T17:31:49;2.72;;;2.00;;
18695;SDS011;22617;43.690;27.956;2022-08-11T17:37:14;2.63;;;2.33;;
18695;SDS011;22617;43.690;27.956;2022-08-11T17:42:19;3.10;;;2.28;;
18695;SDS011;22617;43.690;27.956;2022-08-11T17:47:42;4.72;;;2.42;;
18695;SDS011;22617;43.690;27.956;2022-08-11T17:53:06;3.10;;;2.05;;
18695;SDS011;22617;43.690;27.956;2022-08-11T17:58:31;3.08;;;2.22;;
18695;SDS011;22617;43.690;27.956;2022-08-11T18:03:57;2.83;;;2.25;;
18695;SDS011;22617;43.690;27.956;2022-08-11T18:09:07;3.78;;;2.25;;
18695;SDS011;22617;43.690;27.956;2022-08-11T18:14:32;2.70;;;2.03;;
18695;SDS011;22617;43.690;27.956;2022-08-11T18:19:56;2.58;;;2.20;;
18695;SDS011;22617;43.690;27.956;2022-08-11T18:25:22;2.65;;;2.42;;
18695;SDS011;22617;43.690;27.956;2022-08-11T18:30:47;3.33;;;2.50;;
18695;SDS011;22617;43.690;27.956;2022-08-11T18:36:15;4.45;;;2.97;;
18695;SDS011;22617;43.690;27.956;2022-08-11T18:41:45;3.08;;;2.30;;
18695;SDS011;22617;43.690;27.956;2022-08-11T18:47:10;3.67;;;2.45;;
18695;SDS011;22617;43.690;27.956;2022-08-11T18:52:36;3.50;;;2.38;;
18695;SDS011;22617;43.690;27.956;2022-08-11T18:58:03;3.90;;;2.30;;
18695;SDS011;22617;43.690;27.956;2022-08-11T19:03:28;3.78;;;2.40;;
18695;SDS011;22617;43.690;27.956;2022-08-11T19:08:53;3.42;;;2.60;;
18695;SDS011;22617;43.690;27.956;2022-08-11T19:14:20;3.45;;;2.40;;
18695;SDS011;22617;43.690;27.956;2022-08-11T19:19:44;3.45;;;2.45;;
18695;SDS011;22617;43.690;27.956;2022-08-11T19:25:07;4.65;;;2.60;;
18695;SDS011;22617;43.690;27.956;2022-08-11T19:30:32;5.68;;;2.53;;
18695;SDS011;22617;43.690;27.956;2022-08-11T19:35:55;3.58;;;2.42;;
18695;SDS011;22617;43.690;27.956;2022-08-11T19:41:17;3.42;;;2.10;;
18695;SDS011;22617;43.690;27.956;2022-08-11T19:46:59;2.47;;;2.28;;
18695;SDS011;22617;43.690;27.956;2022-08-11T19:52:22;4.00;;;2.03;;
18695;SDS011;22617;43.690;27.956;2022-08-11T19:57:45;5.20;;;2.33;;
18695;SDS011;22617;43.690;27.956;2022-08-11T20:03:10;5.43;;;2.33;;
18695;SDS011;22617;43.690;27.956;2022-08-11T20:08:33;5.03;;;2.33;;
18695;SDS011;22617;43.690;27.956;2022-08-11T20:14:00;3.00;;;2.47;;
18695;SDS011;22617;43.690;27.956;2022-08-11T20:19:24;5.18;;;2.72;;
18695;SDS011;22617;43.690;27.956;2022-08-11T20:24:56;4.82;;;2.50;;
18695;SDS011;22617;43.690;27.956;2022-08-11T20:30:18;3.47;;;2.13;;
18695;SDS011;22617;43.690;27.956;2022-08-11T20:35:43;3.28;;;2.35;;
18695;SDS011;22617;43.690;27.956;2022-08-11T20:41:07;5.75;;;2.40;;
18695;SDS011;22617;43.690;27.956;2022-08-11T20:46:54;3.40;;;2.58;;
18695;SDS011;22617;43.690;27.956;2022-08-11T20:52:22;3.65;;;2.42;;
18695;SDS011;22617;43.690;27.956;2022-08-11T20:57:48;4.20;;;2.40;;
18695;SDS011;22617;43.690;27.956;2022-08-11T21:03:19;4.00;;;2.33;;
18695;SDS011;22617;43.690;27.956;2022-08-11T21:08:54;4.63;;;2.35;;
18695;SDS011;22617;43.690;27.956;2022-08-11T21:14:20;3.60;;;2.10;;
18695;SDS011;22617;43.690;27.956;2022-08-11T21:19:51;3.40;;;2.10;;
18695;SDS011;22617;43.690;27.956;2022-08-11T21:25:23;3.85;;;2.17;;
18695;SDS011;22617;43.690;27.956;2022-08-11T21:30:47;3.28;;;2.45;;
18695;SDS011;22617;43.690;27.956;2022-08-11T21:36:09;7.28;;;2.85;;
18695;SDS011;22617;43.690;27.956;2022-08-11T21:41:32;3.13;;;2.75;;
18695;SDS011;22617;43.690;27.956;2022-08-11T21:46:55;3.90;;;2.40;;
18695;SDS011;22617;43.690;27.956;2022-08-11T21:52:39;2.70;;;2.50;;
18695;SDS011;22617;43.690;27.956;2022-08-11T21:58:03;5.45;;;2.67;;
18695;SDS011;22617;43.690;27.956;2022-08-11T22:03:25;3.53;;;2.50;;
18695;SDS011;22617;43.690;27.956;2022-08-11T22:08:51;3.38;;;2.20;;
18695;SDS011;22617;43.690;27.956;2022-08-11T22:14:14;3.65;;;2.58;;
18695;SDS011;22617;43.690;27.956;2022-08-11T22:19:36;3.85;;;2.97;;
18695;SDS011;22617;43.690;27.956;2022-08-11T22:25:01;3.83;;;2.60;;
18695;SDS011;22617;43.690;27.956;2022-08-11T22:30:25;3.00;;;2.60;;
18695;SDS011;22617;43.690;27.956;2022-08-11T22:35:47;3.13;;;2.63;;
18695;SDS011;22617;43.690;27.956;2022-08-11T22:41:10;3.38;;;2.80;;
18695;SDS011;22617;43.690;27.956;2022-08-11T22:46:33;3.85;;;2.67;;
18695;SDS011;22617;43.690;27.956;2022-08-11T22:51:56;4.03;;;2.40;;
18695;SDS011;22617;43.690;27.956;2022-08-11T22:57:19;5.45;;;2.50;;
18695;SDS011;22617;43.690;27.956;2022-08-11T23:03:03;4.78;;;2.97;;
18695;SDS011;22617;43.690;27.956;2022-08-11T23:08:39;4.53;;;2.72;;
18695;SDS011;22617;43.690;27.956;2022-08-11T23:14:02;4.30;;;3.00;;
18695;SDS011;22617;43.690;27.956;2022-08-11T23:19:25;3.70;;;2.70;;
18695;SDS011;22617;43.690;27.956;2022-08-11T23:25:08;3.72;;;2.75;;
18695;SDS011;22617;43.690;27.956;2022-08-11T23:30:30;8.07;;;3.00;;
18695;SDS011;22617;43.690;27.956;2022-08-11T23:35:55;7.85;;;3.20;;
18695;SDS011;22617;43.690;27.956;2022-08-11T23:41:40;5.32;;;2.53;;
18695;SDS011;22617;43.690;27.956;2022-08-11T23:47:02;4.47;;;2.78;;
18695;SDS011;22617;43.690;27.956;2022-08-11T23:52:27;7.68;;;3.38;;
18695;SDS011;22617;43.690;27.956;2022-08-11T23:57:53;5.57;;;2.70;;
